Conception Harbour, Canada
Current Conditions -  °F | °C
As of 1:00 AM on Thursday 27 Nov 2014 (Local Time) from CYYT Reporting Station
Overcast Overcast  
Wind Chill: 31°   Ceiling: 10000
Heat Index: 37°   Visibility: 15mi
Dew Point: 30°   Wind: 8mph
Humidity: 75%   Direction: 300°WNW
Pressure: 30.13"   Gusts: NA
Location:  47.43°N, 53.22°W
Report Text: CYYT 270400Z 30007KT 15SM OVC100 03/M01 A3013 RMK AC8 PRESFR SLP208
Loading
Personal Weather Stations






























Interactive Weather Map New forecast layout! Learn more

10-Day Weather Forecast

Advertisements
Track Severe Weather on mobile